createdAt,value
2017-08-11T00:00:28.040Z,19.60
2017-08-11T00:02:56.290Z,19.30
2017-08-11T00:05:23.770Z,19.30
2017-08-11T00:07:52.022Z,19.10
2017-08-11T00:10:19.596Z,19.10
2017-08-11T00:12:47.866Z,18.90
2017-08-11T00:15:15.335Z,18.90
2017-08-11T00:17:43.585Z,18.70
2017-08-11T00:20:11.870Z,18.50
2017-08-11T00:22:39.417Z,18.40
2017-08-11T00:25:06.983Z,18.40
2017-08-11T00:27:34.452Z,18.30
2017-08-11T00:30:02.875Z,18.00
2017-08-11T00:32:30.384Z,18.00
2017-08-11T00:34:58.706Z,17.70
2017-08-11T00:37:26.223Z,17.70
2017-08-11T00:39:54.490Z,17.90
2017-08-11T00:42:21.980Z,17.80
2017-08-11T00:44:49.516Z,18.00
2017-08-11T00:47:17.746Z,17.90
2017-08-11T00:49:45.235Z,17.90
2017-08-11T00:52:12.699Z,17.90
2017-08-11T00:54:40.972Z,17.80
2017-08-11T00:57:08.526Z,17.80
2017-08-11T00:59:36.003Z,17.90
2017-08-11T01:02:04.236Z,18.00
2017-08-11T01:04:31.723Z,18.00
2017-08-11T01:06:59.980Z,17.90
2017-08-11T01:09:27.601Z,17.80
2017-08-11T01:11:55.095Z,17.90
2017-08-11T01:14:22.564Z,17.90
2017-08-11T01:16:50.121Z,17.80
2017-08-11T01:19:17.676Z,17.80
2017-08-11T01:21:45.248Z,17.80
2017-08-11T01:24:13.494Z,17.70
2017-08-11T01:26:40.971Z,17.70
2017-08-11T01:29:08.512Z,17.70
2017-08-11T01:31:36.087Z,17.70
2017-08-11T01:34:03.675Z,17.60
2017-08-11T01:36:31.914Z,17.60
2017-08-11T01:38:59.363Z,17.50
2017-08-11T01:41:26.925Z,17.70
2017-08-11T01:43:54.384Z,17.70
2017-08-11T01:46:21.867Z,17.90
2017-08-11T01:48:50.104Z,17.90
2017-08-11T01:51:17.582Z,17.90
2017-08-11T01:53:45.141Z,17.90
2017-08-11T01:56:12.704Z,17.80
2017-08-11T01:58:40.278Z,17.80
2017-08-11T02:01:08.614Z,17.80
2017-08-11T02:03:36.073Z,17.80
2017-08-11T02:06:03.559Z,17.80
2017-08-11T02:08:31.106Z,17.90
2017-08-11T02:10:58.663Z,17.90
2017-08-11T02:13:26.222Z,18.00
2017-08-11T02:15:53.793Z,18.00
2017-08-11T02:18:21.280Z,18.00
2017-08-11T02:20:48.763Z,18.10
2017-08-11T02:23:16.345Z,18.10
2017-08-11T02:25:43.826Z,18.10
2017-08-11T02:28:12.245Z,18.20
2017-08-11T02:30:39.741Z,18.10
2017-08-11T02:33:07.200Z,18.10
2017-08-11T02:35:34.793Z,18.00
2017-08-11T02:38:03.044Z,18.00
2017-08-11T02:40:31.313Z,18.10
2017-08-11T02:42:58.883Z,18.00
2017-08-11T02:45:26.364Z,18.10
2017-08-11T02:47:53.899Z,18.20
2017-08-11T02:50:22.134Z,18.30
2017-08-11T02:52:49.686Z,18.30
2017-08-11T02:55:17.216Z,18.40
2017-08-11T02:57:44.707Z,18.50
2017-08-11T03:00:12.201Z,18.40
2017-08-11T03:02:40.478Z,18.20
2017-08-11T03:05:08.083Z,18.10
2017-08-11T03:07:35.600Z,18.20
2017-08-11T03:10:03.835Z,18.20
2017-08-11T03:12:31.335Z,18.10
2017-08-11T03:14:59.620Z,18.40
2017-08-11T03:17:27.905Z,18.50
2017-08-11T03:19:55.388Z,18.40
2017-08-11T03:22:22.894Z,18.60
2017-08-11T03:24:51.157Z,18.50
2017-08-11T03:27:18.730Z,18.50
2017-08-11T03:29:47.015Z,18.60
2017-08-11T03:32:15.255Z,18.60
2017-08-11T03:34:42.751Z,18.60
2017-08-11T03:37:10.982Z,18.70
2017-08-11T03:39:38.557Z,18.60
2017-08-11T03:42:06.116Z,18.70
2017-08-11T03:44:33.577Z,18.70
2017-08-11T03:47:01.047Z,18.70
2017-08-11T03:49:29.292Z,18.60
2017-08-11T03:51:56.774Z,18.50
2017-08-11T03:54:24.372Z,18.60
2017-08-11T03:56:51.859Z,18.60
2017-08-11T03:59:19.338Z,18.70
2017-08-11T04:01:46.916Z,18.60
2017-08-11T04:04:15.170Z,18.70
2017-08-11T04:06:42.738Z,18.70
2017-08-11T04:09:10.294Z,18.70
2017-08-11T04:11:37.880Z,18.80
2017-08-11T04:14:05.415Z,18.70
2017-08-11T04:16:32.883Z,18.70
2017-08-11T04:19:01.164Z,18.60
2017-08-11T04:21:28.653Z,18.60
2017-08-11T04:23:56.174Z,18.60
2017-08-11T04:26:24.431Z,18.70
2017-08-11T04:28:51.949Z,18.70
2017-08-11T04:31:19.448Z,18.80
2017-08-11T04:33:46.920Z,18.90
2017-08-11T04:36:15.200Z,19.00
2017-08-11T04:38:43.468Z,19.00
2017-08-11T04:41:11.701Z,19.00
2017-08-11T04:43:39.174Z,19.00
2017-08-11T04:46:06.671Z,19.00
2017-08-11T04:48:34.196Z,19.00
2017-08-11T04:51:01.679Z,19.10
2017-08-11T04:53:29.943Z,19.10
2017-08-11T04:55:58.223Z,19.10
2017-08-11T04:58:26.461Z,19.20
2017-08-11T05:00:53.971Z,19.10
2017-08-11T05:03:21.556Z,19.20
2017-08-11T05:05:49.063Z,19.20
2017-08-11T05:08:16.529Z,19.30
2017-08-11T05:10:44.804Z,19.20
2017-08-11T05:13:13.024Z,19.20
2017-08-11T05:15:40.527Z,19.10
2017-08-11T05:18:08.133Z,19.20
2017-08-11T05:20:35.646Z,19.20
2017-08-11T05:23:03.921Z,19.10
2017-08-11T05:25:32.243Z,19.10
2017-08-11T05:27:59.755Z,19.10
2017-08-11T05:30:27.360Z,19.10
2017-08-11T05:32:54.875Z,19.10
2017-08-11T05:35:23.120Z,19.10
2017-08-11T05:37:50.752Z,19.10
2017-08-11T05:40:18.213Z,19.20
2017-08-11T05:42:45.678Z,19.30
2017-08-11T05:45:13.173Z,19.30
2017-08-11T05:47:40.650Z,19.40
2017-08-11T05:50:08.937Z,19.30
2017-08-11T05:52:36.443Z,19.30
2017-08-11T05:55:03.928Z,19.40
2017-08-11T05:57:32.197Z,19.40
2017-08-11T05:59:59.664Z,19.40
2017-08-11T06:02:27.980Z,19.50
2017-08-11T06:04:55.491Z,19.40
2017-08-11T06:07:23.042Z,19.50
2017-08-11T06:09:50.510Z,19.50
2017-08-11T06:12:18.749Z,19.50
2017-08-11T06:14:46.228Z,19.40
2017-08-11T06:17:14.500Z,19.50
2017-08-11T06:19:42.056Z,19.40
2017-08-11T06:22:09.547Z,19.50
2017-08-11T06:24:37.785Z,19.50
2017-08-11T06:27:05.354Z,19.50
2017-08-11T06:29:32.920Z,19.60
2017-08-11T06:32:00.495Z,19.60
2017-08-11T06:34:28.759Z,19.60
2017-08-11T06:36:56.304Z,19.60
2017-08-11T06:39:23.885Z,19.60
2017-08-11T06:41:52.154Z,19.60
2017-08-11T06:44:20.414Z,19.70
2017-08-11T06:46:48.710Z,19.80
2017-08-11T06:49:16.962Z,19.80
2017-08-11T06:51:44.548Z,19.80
2017-08-11T06:54:12.820Z,19.90
2017-08-11T06:56:41.123Z,19.90
2017-08-11T06:59:08.595Z,19.90
2017-08-11T07:01:36.130Z,20.00
2017-08-11T07:04:03.624Z,20.00
2017-08-11T07:06:31.138Z,20.00
2017-08-11T07:08:58.678Z,20.00
2017-08-11T07:11:26.983Z,20.00
2017-08-11T07:13:54.458Z,20.00
2017-08-11T07:16:22.014Z,20.00
2017-08-11T07:18:49.534Z,20.10
2017-08-11T07:21:17.807Z,20.20
2017-08-11T07:23:46.029Z,20.30
2017-08-11T07:26:13.545Z,20.30
2017-08-11T07:28:41.855Z,20.50
2017-08-11T07:31:09.326Z,20.40
2017-08-11T07:33:36.800Z,20.50
2017-08-11T07:36:04.515Z,20.50
2017-08-11T07:38:32.149Z,20.50
2017-08-11T07:41:00.428Z,20.60
2017-08-11T07:43:29.691Z,20.60
2017-08-11T07:45:57.184Z,20.50
2017-08-11T07:48:25.555Z,20.80
2017-08-11T07:50:53.110Z,20.80
2017-08-11T07:53:20.569Z,20.90
2017-08-11T07:55:48.892Z,21.00
2017-08-11T07:58:16.352Z,21.00
2017-08-11T08:00:43.855Z,21.10
2017-08-11T08:03:11.406Z,21.00
2017-08-11T08:05:38.976Z,20.90
2017-08-11T08:08:07.247Z,20.90
2017-08-11T08:10:34.808Z,20.90
2017-08-11T08:13:02.330Z,20.90
2017-08-11T08:15:29.798Z,20.80
2017-08-11T08:17:57.264Z,20.80
2017-08-11T08:20:24.837Z,20.70
2017-08-11T08:22:52.428Z,20.70
2017-08-11T08:25:20.004Z,20.50
2017-08-11T08:27:47.561Z,20.50
2017-08-11T08:30:15.035Z,20.50
2017-08-11T08:32:42.525Z,20.40
2017-08-11T08:35:10.092Z,20.30
2017-08-11T08:37:38.340Z,20.00
2017-08-11T08:40:05.832Z,20.00
2017-08-11T08:42:34.071Z,20.00
2017-08-11T08:45:01.547Z,20.00
2017-08-11T08:47:29.014Z,19.90
2017-08-11T08:49:57.333Z,19.80
2017-08-11T08:52:24.890Z,19.80
2017-08-11T08:54:52.366Z,19.70
2017-08-11T08:57:19.847Z,19.80
2017-08-11T08:59:47.326Z,20.00
2017-08-11T09:02:15.980Z,20.30
2017-08-11T09:04:43.608Z,20.30
2017-08-11T09:07:11.094Z,20.50
2017-08-11T09:09:38.576Z,20.50
2017-08-11T09:12:06.896Z,20.10
2017-08-11T09:14:34.428Z,20.10
2017-08-11T09:17:02.666Z,19.80
2017-08-11T09:19:30.246Z,19.70
2017-08-11T09:21:57.803Z,19.70
2017-08-11T09:24:38.054Z,19.70
2017-08-11T09:27:17.387Z,19.60
2017-08-11T09:29:56.817Z,19.60
2017-08-11T09:32:36.272Z,19.50
2017-08-11T09:35:16.466Z,19.60
2017-08-11T09:37:43.957Z,19.60
2017-08-11T09:40:11.484Z,19.70
2017-08-11T09:42:38.985Z,19.60
2017-08-11T09:45:06.464Z,19.70
2017-08-11T09:47:34.709Z,19.80
2017-08-11T09:50:02.288Z,19.70
2017-08-11T09:52:29.776Z,19.60
2017-08-11T09:54:57.306Z,19.60
2017-08-11T09:57:25.621Z,19.80
2017-08-11T09:59:53.146Z,19.70
2017-08-11T10:02:21.386Z,19.70
2017-08-11T10:04:49.096Z,19.60
2017-08-11T10:07:16.552Z,19.60
2017-08-11T10:09:44.053Z,19.60
2017-08-11T10:12:11.528Z,19.50
2017-08-11T10:14:39.014Z,19.40
2017-08-11T10:17:07.245Z,19.30
2017-08-11T10:19:34.764Z,19.30
2017-08-11T10:22:02.248Z,19.40
2017-08-11T10:24:29.739Z,19.30
2017-08-11T10:26:57.223Z,19.10
2017-08-11T10:29:25.581Z,18.90
2017-08-11T10:31:53.058Z,18.80
2017-08-11T10:34:21.292Z,18.80
2017-08-11T10:36:48.762Z,18.80
2017-08-11T10:39:16.225Z,18.60
2017-08-11T10:41:44.507Z,18.90
2017-08-11T10:44:12.744Z,19.00
2017-08-11T10:46:40.279Z,19.00
2017-08-11T10:49:07.757Z,19.10
2017-08-11T10:51:35.356Z,19.10
2017-08-11T10:54:03.613Z,19.50
2017-08-11T10:56:31.074Z,19.50
2017-08-11T10:58:58.626Z,19.80
2017-08-11T11:01:26.201Z,19.80
2017-08-11T11:03:53.669Z,19.90
2017-08-11T11:06:21.936Z,19.90
2017-08-11T11:08:50.201Z,19.90
2017-08-11T11:11:17.683Z,19.80
2017-08-11T11:13:45.160Z,20.00
2017-08-11T11:16:12.645Z,20.20
2017-08-11T11:18:40.122Z,20.30
2017-08-11T11:21:07.685Z,20.60
2017-08-11T11:23:35.162Z,21.10
2017-08-11T11:26:03.425Z,22.40
2017-08-11T11:28:31.752Z,22.90
2017-08-11T11:30:59.256Z,22.90
2017-08-11T11:33:26.741Z,23.20
2017-08-11T11:35:54.227Z,23.10
2017-08-11T11:38:21.711Z,22.70
2017-08-11T11:40:49.290Z,22.60
2017-08-11T11:43:17.558Z,22.60
2017-08-11T11:45:45.132Z,22.60
2017-08-11T11:48:13.379Z,21.40
2017-08-11T11:50:40.963Z,21.30
2017-08-11T11:53:09.248Z,21.30
2017-08-11T11:55:37.541Z,21.30
2017-08-11T11:58:05.039Z,21.30
2017-08-11T12:00:32.657Z,21.50
2017-08-11T12:03:00.183Z,21.50
2017-08-11T12:05:27.671Z,21.50
2017-08-11T12:07:55.182Z,21.50
2017-08-11T12:10:22.788Z,21.30
2017-08-11T12:12:50.263Z,21.10
2017-08-11T12:15:17.752Z,21.00
2017-08-11T12:17:45.223Z,21.00
2017-08-11T12:20:13.626Z,21.10
2017-08-11T12:22:42.000Z,21.20
2017-08-11T12:25:10.254Z,21.10
2017-08-11T12:27:37.812Z,21.10
2017-08-11T12:30:05.393Z,21.00
2017-08-11T12:32:33.663Z,20.70
2017-08-11T12:35:01.940Z,20.60
2017-08-11T12:37:30.319Z,20.70
2017-08-11T12:39:58.591Z,20.90
2017-08-11T12:42:26.878Z,20.90
2017-08-11T12:44:55.140Z,21.00
2017-08-11T12:47:23.408Z,21.10
2017-08-11T12:49:50.957Z,21.10
2017-08-11T12:52:18.444Z,21.00
2017-08-11T12:54:46.685Z,20.90
2017-08-11T12:57:14.151Z,20.90
2017-08-11T12:59:41.635Z,20.80
2017-08-11T13:02:09.896Z,20.60
2017-08-11T13:04:38.125Z,20.50
2017-08-11T13:07:05.640Z,20.40
2017-08-11T13:09:33.946Z,20.50
2017-08-11T13:12:01.421Z,20.50
2017-08-11T13:14:28.911Z,20.60
2017-08-11T13:16:56.466Z,20.50
2017-08-11T13:19:23.957Z,20.50
2017-08-11T13:21:51.434Z,20.50
2017-08-11T13:24:18.944Z,20.80
2017-08-11T13:26:46.400Z,21.00
2017-08-11T13:29:14.688Z,21.50
2017-08-11T13:31:42.960Z,21.80
2017-08-11T13:34:10.456Z,21.80
2017-08-11T13:36:37.978Z,22.10
2017-08-11T13:39:05.529Z,22.20
2017-08-11T13:41:33.841Z,22.40
2017-08-11T13:44:01.354Z,22.30
2017-08-11T13:46:28.818Z,22.40
2017-08-11T13:48:57.091Z,22.70
2017-08-11T13:51:25.923Z,22.70
2017-08-11T13:53:53.389Z,22.70
2017-08-11T13:56:20.887Z,22.60
2017-08-11T13:58:48.599Z,22.40
2017-08-11T14:01:16.056Z,22.30
2017-08-11T14:03:43.589Z,22.10
2017-08-11T14:06:11.854Z,22.10
2017-08-11T14:08:40.123Z,22.10
2017-08-11T14:11:08.397Z,22.30
2017-08-11T14:13:36.630Z,22.60
2017-08-11T14:16:04.104Z,22.60
2017-08-11T14:18:31.579Z,22.80
2017-08-11T14:20:59.071Z,23.00
2017-08-11T14:23:32.332Z,22.90
2017-08-11T14:25:59.829Z,22.90
2017-08-11T14:28:27.348Z,22.90
2017-08-11T14:30:55.590Z,22.80
2017-08-11T14:33:23.078Z,22.80
2017-08-11T14:35:51.331Z,22.70
2017-08-11T14:38:18.857Z,22.70
2017-08-11T14:40:46.357Z,22.60
2017-08-11T14:43:13.840Z,22.60
2017-08-11T14:45:42.069Z,22.40
2017-08-11T14:48:09.572Z,22.30
2017-08-11T14:50:37.823Z,22.20
2017-08-11T14:53:05.388Z,22.10
2017-08-11T14:55:32.874Z,22.20
2017-08-11T14:58:00.351Z,22.10
2017-08-11T15:00:27.861Z,22.00
2017-08-11T15:02:55.479Z,22.00
2017-08-11T15:05:22.983Z,21.90
2017-08-11T15:07:51.246Z,21.70
2017-08-11T15:10:18.734Z,21.60
2017-08-11T15:12:46.983Z,21.90
2017-08-11T15:15:14.451Z,21.80
2017-08-11T15:17:42.711Z,21.90
2017-08-11T15:20:10.198Z,21.80
2017-08-11T15:22:37.674Z,21.60
2017-08-11T15:25:05.146Z,21.40
2017-08-11T15:27:32.627Z,21.30
2017-08-11T15:30:00.102Z,21.30
2017-08-11T15:32:27.667Z,21.30
2017-08-11T15:34:55.933Z,21.10
2017-08-11T15:37:23.426Z,21.00
2017-08-11T15:39:50.956Z,21.00
2017-08-11T15:42:19.182Z,21.10
2017-08-11T15:47:20.675Z,21.00
2017-08-11T15:49:48.222Z,20.90
2017-08-11T15:52:16.087Z,20.90
2017-08-11T15:54:43.625Z,21.00
2017-08-11T15:57:11.090Z,21.00
2017-08-11T15:59:38.595Z,21.00
2017-08-11T16:02:06.081Z,21.00
2017-08-11T16:04:33.574Z,21.00
2017-08-11T16:07:01.054Z,21.00
2017-08-11T16:09:28.572Z,21.00
2017-08-11T16:11:56.084Z,21.00
2017-08-11T16:14:24.362Z,20.90
2017-08-11T16:16:52.610Z,20.70
2017-08-11T16:19:20.098Z,20.70
2017-08-11T16:21:48.362Z,20.60
2017-08-11T16:24:16.608Z,20.60
2017-08-11T16:26:44.084Z,20.50
2017-08-11T16:29:11.563Z,20.50
2017-08-11T16:31:39.829Z,20.00
2017-08-11T16:34:08.108Z,19.90
2017-08-11T16:36:36.390Z,19.80
2017-08-11T16:39:04.664Z,19.70
2017-08-11T16:41:32.933Z,19.80
2017-08-11T16:44:01.309Z,19.80
2017-08-11T16:46:29.654Z,19.70
2017-08-11T16:48:57.130Z,19.60
2017-08-11T16:51:24.604Z,19.70
2017-08-11T16:53:52.879Z,19.90
2017-08-11T16:56:21.156Z,20.10
2017-08-11T16:58:49.474Z,20.00
2017-08-11T17:01:17.004Z,20.00
2017-08-11T17:03:44.499Z,20.00
2017-08-11T17:06:11.998Z,20.00
2017-08-11T17:08:40.249Z,20.00
2017-08-11T17:11:07.734Z,19.90
2017-08-11T17:13:36.089Z,19.90
2017-08-11T17:16:04.396Z,20.00
2017-08-11T17:18:31.895Z,19.90
2017-08-11T17:20:59.360Z,20.00
2017-08-11T17:23:26.868Z,20.10
2017-08-11T17:25:55.119Z,20.00
2017-08-11T17:28:22.613Z,19.90
2017-08-11T17:30:50.577Z,20.10
2017-08-11T17:33:18.068Z,20.10
2017-08-11T17:35:45.591Z,20.10
2017-08-11T17:38:13.119Z,20.20
2017-08-11T17:40:40.595Z,20.10
2017-08-11T17:43:08.845Z,20.20
2017-08-11T17:45:36.351Z,20.10
2017-08-11T17:48:03.837Z,20.00
2017-08-11T17:50:31.318Z,20.00
2017-08-11T17:52:58.811Z,20.10
2017-08-11T17:55:26.289Z,20.10
2017-08-11T17:57:53.791Z,20.00
2017-08-11T18:00:21.366Z,19.90
2017-08-11T18:02:49.632Z,19.90
2017-08-11T18:05:17.107Z,19.80
2017-08-11T18:07:45.358Z,19.90
2017-08-11T18:10:12.823Z,19.90
2017-08-11T18:12:41.082Z,19.90
2017-08-11T18:15:08.560Z,19.80
2017-08-11T18:17:36.820Z,19.90
2017-08-11T18:20:04.391Z,19.80
2017-08-11T18:22:32.652Z,19.90
2017-08-11T18:25:00.140Z,19.80
2017-08-11T18:27:28.394Z,19.80
2017-08-11T18:29:55.884Z,19.80
2017-08-11T18:32:23.375Z,19.70
2017-08-11T18:34:50.844Z,19.60
2017-08-11T18:37:18.335Z,19.70
2017-08-11T18:39:46.646Z,19.70
2017-08-11T18:42:14.120Z,19.60
2017-08-11T18:44:41.584Z,19.70
2017-08-11T18:47:09.041Z,19.70
2017-08-11T18:49:36.522Z,19.70
2017-08-11T18:52:04.005Z,19.70
2017-08-11T18:54:32.270Z,19.80
2017-08-11T18:57:00.523Z,19.70
2017-08-11T18:59:28.103Z,19.70
2017-08-11T19:01:56.354Z,19.70
2017-08-11T19:04:23.851Z,19.70
2017-08-11T19:06:51.331Z,19.80
2017-08-11T19:09:18.793Z,19.80
2017-08-11T19:11:46.283Z,19.80
2017-08-11T19:14:13.900Z,19.80
2017-08-11T19:16:41.378Z,19.80
2017-08-11T19:19:08.868Z,19.70
2017-08-11T19:21:36.436Z,19.70
2017-08-11T19:24:04.685Z,19.70
2017-08-11T19:26:32.187Z,19.70
2017-08-11T19:28:59.725Z,19.70
2017-08-11T19:31:27.285Z,19.70
2017-08-11T19:33:55.530Z,19.60
2017-08-11T19:36:23.145Z,19.50
2017-08-11T19:38:50.650Z,19.50
2017-08-11T19:41:18.279Z,19.50
2017-08-11T19:43:45.748Z,19.60
2017-08-11T19:46:13.248Z,19.60
2017-08-11T19:48:41.531Z,19.60
2017-08-11T19:51:09.862Z,19.60
2017-08-11T19:53:37.334Z,19.50
2017-08-11T19:56:04.829Z,19.50
2017-08-11T19:58:33.087Z,19.50
2017-08-11T20:01:01.319Z,19.40
2017-08-11T20:03:28.864Z,19.40
2017-08-11T20:05:56.317Z,19.40
2017-08-11T20:08:23.874Z,19.40
2017-08-11T20:10:51.420Z,19.40
2017-08-11T20:13:18.949Z,19.40
2017-08-11T20:15:46.514Z,19.50
2017-08-11T20:18:14.799Z,19.50
2017-08-11T20:20:43.092Z,19.50
2017-08-11T20:23:10.563Z,19.50
2017-08-11T20:25:38.060Z,19.50
2017-08-11T20:28:05.543Z,19.50
2017-08-11T20:30:33.802Z,19.50
2017-08-11T20:33:01.458Z,19.40
2017-08-11T20:35:28.933Z,19.50
2017-08-11T20:37:57.216Z,19.20
2017-08-11T20:40:25.573Z,19.20
2017-08-11T20:42:53.130Z,19.20
2017-08-11T20:45:21.388Z,19.20
2017-08-11T20:47:48.975Z,19.10
2017-08-11T20:50:17.221Z,19.20
2017-08-11T20:52:44.706Z,19.10
2017-08-11T20:55:12.988Z,19.10
2017-08-11T20:57:41.229Z,19.00
2017-08-11T21:00:08.705Z,18.90
2017-08-11T21:02:36.304Z,19.00
2017-08-11T21:05:03.842Z,19.00
2017-08-11T21:07:32.077Z,19.00
2017-08-11T21:09:59.565Z,19.00
2017-08-11T21:12:27.881Z,19.20
2017-08-11T21:15:01.382Z,19.10
2017-08-11T21:17:28.877Z,19.20
2017-08-11T21:19:56.456Z,19.30
2017-08-11T21:22:24.708Z,19.10
2017-08-11T21:24:52.290Z,19.10
2017-08-11T21:27:20.580Z,19.10
2017-08-11T21:29:48.068Z,19.10
2017-08-11T21:32:15.565Z,19.10
2017-08-11T21:34:43.086Z,19.20
2017-08-11T21:37:10.571Z,19.30
2017-08-11T21:39:38.093Z,19.30
2017-08-11T21:42:05.558Z,19.30
2017-08-11T21:44:33.073Z,19.30
2017-08-11T21:47:01.344Z,19.30
2017-08-11T21:49:29.600Z,19.30
2017-08-11T21:51:57.086Z,19.20
2017-08-11T21:54:25.332Z,19.20
2017-08-11T21:56:52.912Z,19.20
2017-08-11T21:59:21.162Z,19.20
2017-08-11T22:01:48.681Z,19.10
2017-08-11T22:04:16.149Z,19.10
2017-08-11T22:06:43.696Z,19.10
2017-08-11T22:09:11.223Z,19.00
2017-08-11T22:11:39.490Z,18.90
2017-08-11T22:14:07.807Z,18.80
2017-08-11T22:16:35.366Z,18.70
2017-08-11T22:19:03.095Z,18.60
2017-08-11T22:21:31.350Z,18.40
2017-08-11T22:23:58.849Z,18.30
2017-08-11T22:26:26.385Z,18.40
2017-08-11T22:28:54.643Z,18.30
2017-08-11T22:31:22.216Z,18.30
2017-08-11T22:33:50.477Z,18.20
2017-08-11T22:36:17.954Z,18.10
2017-08-11T22:38:46.221Z,18.20
2017-08-11T22:41:14.501Z,18.30
2017-08-11T22:43:42.776Z,18.30
2017-08-11T22:46:11.016Z,18.20
2017-08-11T22:48:38.508Z,18.20
2017-08-11T22:51:06.818Z,18.10
2017-08-11T22:53:34.286Z,18.10
2017-08-11T22:56:01.800Z,18.10
2017-08-11T22:58:30.061Z,18.10
2017-08-11T23:00:57.539Z,18.10
2017-08-11T23:03:25.902Z,18.00
2017-08-11T23:05:54.123Z,17.80
2017-08-11T23:08:21.681Z,17.70
2017-08-11T23:10:49.166Z,17.80
2017-08-11T23:13:16.654Z,17.70
2017-08-11T23:15:44.917Z,17.80
2017-08-11T23:18:12.373Z,17.70
2017-08-11T23:20:39.856Z,17.80
2017-08-11T23:23:07.380Z,17.80
2017-08-11T23:25:34.853Z,17.70
2017-08-11T23:28:03.224Z,17.60
2017-08-11T23:30:30.735Z,17.60
2017-08-11T23:32:58.220Z,17.60
2017-08-11T23:35:25.787Z,17.60
2017-08-11T23:37:53.272Z,17.60
2017-08-11T23:40:21.521Z,17.60
2017-08-11T23:42:49.102Z,17.50
2017-08-11T23:45:17.354Z,17.50
2017-08-11T23:47:44.913Z,17.40
2017-08-11T23:50:12.374Z,17.40
2017-08-11T23:52:39.956Z,17.40
2017-08-11T23:55:08.234Z,17.30
2017-08-11T23:57:35.731Z,17.20
